Terminal Aerodrome Forecast
Issued by NWS

Home | Current Version | Previous Version | Text Only | Print | Product List | Glossary On
Versions: 1 2 3 4 5 6 7 8 9 10 11 12 13 14 15
000
FTUS45 KTFX 251700
TAFHVR
TAF
KHVR 251737Z 2518/2618 31008KT P6SM OVC015
     FM252200 24006KT P6SM SCT015 SCT180
     FM260500 VRB06KT P6SM BKN080
      TEMPO 2609/2613 1SM -SN BKN010=

USA.gov is the U.S. government's official web portal to all federal, state and local government web resources and services.